sensor_id;sensor_type;location;lat;lon;timestamp;temperature;humidity
56861;DHT22;42744;51.094;3.490;2022-08-07T00:01:21;12.80;99.90
56861;DHT22;42744;51.094;3.490;2022-08-07T00:03:48;12.70;99.90
56861;DHT22;42744;51.094;3.490;2022-08-07T00:06:14;12.70;99.90
56861;DHT22;42744;51.094;3.490;2022-08-07T00:08:40;12.70;99.90
56861;DHT22;42744;51.094;3.490;2022-08-07T00:11:06;12.60;99.90
56861;DHT22;42744;51.094;3.490;2022-08-07T00:13:33;12.60;99.90
56861;DHT22;42744;51.094;3.490;2022-08-07T00:15:59;12.50;99.90
56861;DHT22;42744;51.094;3.490;2022-08-07T00:18:27;12.60;99.90
56861;DHT22;42744;51.094;3.490;2022-08-07T00:21:01;12.60;99.90
56861;DHT22;42744;51.094;3.490;2022-08-07T00:23:29;12.50;99.90
56861;DHT22;42744;51.094;3.490;2022-08-07T00:25:56;12.40;99.90
56861;DHT22;42744;51.094;3.490;2022-08-07T00:28:22;12.40;99.90
56861;DHT22;42744;51.094;3.490;2022-08-07T00:30:48;12.40;99.90
56861;DHT22;42744;51.094;3.490;2022-08-07T00:33:14;12.40;99.90
56861;DHT22;42744;51.094;3.490;2022-08-07T00:35:40;12.30;99.90
56861;DHT22;42744;51.094;3.490;2022-08-07T00:38:06;12.30;99.90
56861;DHT22;42744;51.094;3.490;2022-08-07T00:40:33;12.30;99.90
56861;DHT22;42744;51.094;3.490;2022-08-07T00:42:59;12.20;99.90
56861;DHT22;42744;51.094;3.490;2022-08-07T00:45:25;12.20;99.90
56861;DHT22;42744;51.094;3.490;2022-08-07T00:47:51;12.10;99.90
56861;DHT22;42744;51.094;3.490;2022-08-07T00:50:17;12.10;99.90
56861;DHT22;42744;51.094;3.490;2022-08-07T00:52:44;12.10;99.90
56861;DHT22;42744;51.094;3.490;2022-08-07T00:55:10;12.10;99.90
56861;DHT22;42744;51.094;3.490;2022-08-07T00:57:35;12.10;99.90
56861;DHT22;42744;51.094;3.490;2022-08-07T01:00:06;12.10;99.90
56861;DHT22;42744;51.094;3.490;2022-08-07T01:02:33;12.00;99.90
56861;DHT22;42744;51.094;3.490;2022-08-07T01:04:59;12.00;99.90
56861;DHT22;42744;51.094;3.490;2022-08-07T01:07:27;11.90;99.90
56861;DHT22;42744;51.094;3.490;2022-08-07T01:09:53;11.90;99.90
56861;DHT22;42744;51.094;3.490;2022-08-07T01:12:19;11.80;99.90
56861;DHT22;42744;51.094;3.490;2022-08-07T01:14:45;11.80;99.90
56861;DHT22;42744;51.094;3.490;2022-08-07T01:17:12;11.80;99.90
56861;DHT22;42744;51.094;3.490;2022-08-07T01:19:38;11.80;99.90
56861;DHT22;42744;51.094;3.490;2022-08-07T01:22:06;11.80;99.90
56861;DHT22;42744;51.094;3.490;2022-08-07T01:24:33;11.70;99.90
56861;DHT22;42744;51.094;3.490;2022-08-07T01:27:00;11.70;99.90
56861;DHT22;42744;51.094;3.490;2022-08-07T01:29:27;11.70;99.90
56861;DHT22;42744;51.094;3.490;2022-08-07T01:31:54;11.60;99.90
56861;DHT22;42744;51.094;3.490;2022-08-07T01:34:21;11.60;99.90
56861;DHT22;42744;51.094;3.490;2022-08-07T01:36:48;11.60;99.90
56861;DHT22;42744;51.094;3.490;2022-08-07T01:39:15;11.60;99.90
56861;DHT22;42744;51.094;3.490;2022-08-07T01:41:43;11.60;99.90
56861;DHT22;42744;51.094;3.490;2022-08-07T01:44:10;11.60;99.90
56861;DHT22;42744;51.094;3.490;2022-08-07T01:46:38;11.60;99.90
56861;DHT22;42744;51.094;3.490;2022-08-07T01:49:05;11.60;99.90
56861;DHT22;42744;51.094;3.490;2022-08-07T01:51:32;11.50;99.90
56861;DHT22;42744;51.094;3.490;2022-08-07T01:54:02;11.50;99.90
56861;DHT22;42744;51.094;3.490;2022-08-07T01:56:45;11.40;99.90
56861;DHT22;42744;51.094;3.490;2022-08-07T01:59:27;11.40;99.90
56861;DHT22;42744;51.094;3.490;2022-08-07T02:02:02;11.40;99.90
56861;DHT22;42744;51.094;3.490;2022-08-07T02:04:37;11.30;99.90
56861;DHT22;42744;51.094;3.490;2022-08-07T02:07:11;11.30;99.90
56861;DHT22;42744;51.094;3.490;2022-08-07T02:09:41;11.30;99.90
56861;DHT22;42744;51.094;3.490;2022-08-07T02:12:12;11.30;99.90
56861;DHT22;42744;51.094;3.490;2022-08-07T02:14:48;11.30;99.90
56861;DHT22;42744;51.094;3.490;2022-08-07T02:17:16;11.30;99.90
56861;DHT22;42744;51.094;3.490;2022-08-07T02:19:45;11.20;99.90
56861;DHT22;42744;51.094;3.490;2022-08-07T02:22:13;11.20;99.90
56861;DHT22;42744;51.094;3.490;2022-08-07T02:24:43;11.10;99.90
56861;DHT22;42744;51.094;3.490;2022-08-07T02:27:15;11.20;99.90
56861;DHT22;42744;51.094;3.490;2022-08-07T02:29:44;11.20;99.90
56861;DHT22;42744;51.094;3.490;2022-08-07T02:32:12;11.20;99.90
56861;DHT22;42744;51.094;3.490;2022-08-07T02:34:40;11.20;99.90
56861;DHT22;42744;51.094;3.490;2022-08-07T02:37:09;11.20;99.90
56861;DHT22;42744;51.094;3.490;2022-08-07T02:39:39;11.10;99.90
56861;DHT22;42744;51.094;3.490;2022-08-07T02:42:06;11.10;99.90
56861;DHT22;42744;51.094;3.490;2022-08-07T02:44:33;11.10;99.90
56861;DHT22;42744;51.094;3.490;2022-08-07T02:47:02;11.10;99.90
56861;DHT22;42744;51.094;3.490;2022-08-07T02:49:30;11.10;99.90
56861;DHT22;42744;51.094;3.490;2022-08-07T02:51:58;11.10;99.90
56861;DHT22;42744;51.094;3.490;2022-08-07T02:54:28;11.10;99.90
56861;DHT22;42744;51.094;3.490;2022-08-07T02:56:55;11.10;99.90
56861;DHT22;42744;51.094;3.490;2022-08-07T02:59:26;11.10;99.90
56861;DHT22;42744;51.094;3.490;2022-08-07T03:01:53;11.10;99.90
56861;DHT22;42744;51.094;3.490;2022-08-07T03:04:22;11.10;99.90
56861;DHT22;42744;51.094;3.490;2022-08-07T03:06:49;11.10;99.90
56861;DHT22;42744;51.094;3.490;2022-08-07T03:09:15;11.00;99.90
56861;DHT22;42744;51.094;3.490;2022-08-07T03:11:47;11.00;99.90
56861;DHT22;42744;51.094;3.490;2022-08-07T03:14:15;11.00;99.90
56861;DHT22;42744;51.094;3.490;2022-08-07T03:16:42;11.10;99.90
56861;DHT22;42744;51.094;3.490;2022-08-07T03:19:09;11.00;99.90
56861;DHT22;42744;51.094;3.490;2022-08-07T03:21:36;11.00;99.90
56861;DHT22;42744;51.094;3.490;2022-08-07T03:24:02;11.00;99.90
56861;DHT22;42744;51.094;3.490;2022-08-07T03:26:31;11.00;99.90
56861;DHT22;42744;51.094;3.490;2022-08-07T03:29:00;10.90;99.90
56861;DHT22;42744;51.094;3.490;2022-08-07T03:31:27;10.90;99.90
56861;DHT22;42744;51.094;3.490;2022-08-07T03:33:58;10.90;99.90
56861;DHT22;42744;51.094;3.490;2022-08-07T03:36:26;10.90;99.90
56861;DHT22;42744;51.094;3.490;2022-08-07T03:38:57;10.90;99.90
56861;DHT22;42744;51.094;3.490;2022-08-07T03:41:25;10.90;99.90
56861;DHT22;42744;51.094;3.490;2022-08-07T03:43:51;10.90;99.90
56861;DHT22;42744;51.094;3.490;2022-08-07T03:46:20;10.80;99.90
56861;DHT22;42744;51.094;3.490;2022-08-07T03:48:49;10.80;99.90
56861;DHT22;42744;51.094;3.490;2022-08-07T03:51:15;10.80;99.90
56861;DHT22;42744;51.094;3.490;2022-08-07T03:53:42;10.80;99.90
56861;DHT22;42744;51.094;3.490;2022-08-07T03:56:09;10.80;99.90
56861;DHT22;42744;51.094;3.490;2022-08-07T03:58:36;10.80;99.90
56861;DHT22;42744;51.094;3.490;2022-08-07T04:01:05;10.70;99.90
56861;DHT22;42744;51.094;3.490;2022-08-07T04:03:35;10.70;99.90
56861;DHT22;42744;51.094;3.490;2022-08-07T04:06:01;10.70;99.90
56861;DHT22;42744;51.094;3.490;2022-08-07T04:08:28;10.60;99.90
56861;DHT22;42744;51.094;3.490;2022-08-07T04:10:55;10.60;99.90
56861;DHT22;42744;51.094;3.490;2022-08-07T04:13:22;10.60;99.90
56861;DHT22;42744;51.094;3.490;2022-08-07T04:15:49;10.60;99.90
56861;DHT22;42744;51.094;3.490;2022-08-07T04:18:16;10.60;99.90
56861;DHT22;42744;51.094;3.490;2022-08-07T04:20:43;10.50;99.90
56861;DHT22;42744;51.094;3.490;2022-08-07T04:23:09;10.50;99.90
56861;DHT22;42744;51.094;3.490;2022-08-07T04:25:37;10.60;99.90
56861;DHT22;42744;51.094;3.490;2022-08-07T04:28:06;10.50;99.90
56861;DHT22;42744;51.094;3.490;2022-08-07T04:30:33;10.50;99.90
56861;DHT22;42744;51.094;3.490;2022-08-07T04:33:04;10.50;99.90
56861;DHT22;42744;51.094;3.490;2022-08-07T04:35:30;10.60;99.90
56861;DHT22;42744;51.094;3.490;2022-08-07T04:37:56;10.50;99.90
56861;DHT22;42744;51.094;3.490;2022-08-07T04:40:23;10.60;99.90
56861;DHT22;42744;51.094;3.490;2022-08-07T04:42:50;10.60;99.90
56861;DHT22;42744;51.094;3.490;2022-08-07T04:45:16;10.60;99.90
56861;DHT22;42744;51.094;3.490;2022-08-07T04:47:53;10.60;99.90
56861;DHT22;42744;51.094;3.490;2022-08-07T04:50:49;10.60;99.90
56861;DHT22;42744;51.094;3.490;2022-08-07T04:53:26;10.60;99.90
56861;DHT22;42744;51.094;3.490;2022-08-07T04:56:19;10.60;99.90
56861;DHT22;42744;51.094;3.490;2022-08-07T05:02:34;10.60;99.90
56861;DHT22;42744;51.094;3.490;2022-08-07T05:05:13;10.70;99.90
56861;DHT22;42744;51.094;3.490;2022-08-07T05:10:44;10.70;99.90
56861;DHT22;42744;51.094;3.490;2022-08-07T05:13:18;10.70;99.90
56861;DHT22;42744;51.094;3.490;2022-08-07T05:15:50;10.70;99.90
56861;DHT22;42744;51.094;3.490;2022-08-07T05:18:28;10.80;99.90
56861;DHT22;42744;51.094;3.490;2022-08-07T05:21:00;10.80;99.90
56861;DHT22;42744;51.094;3.490;2022-08-07T05:24:09;10.80;99.90
56861;DHT22;42744;51.094;3.490;2022-08-07T05:26:28;10.80;99.90
56861;DHT22;42744;51.094;3.490;2022-08-07T05:28:57;10.90;99.90
56861;DHT22;42744;51.094;3.490;2022-08-07T05:31:31;10.90;99.90
56861;DHT22;42744;51.094;3.490;2022-08-07T05:34:09;11.00;99.90
56861;DHT22;42744;51.094;3.490;2022-08-07T05:36:39;11.00;99.90
56861;DHT22;42744;51.094;3.490;2022-08-07T05:39:09;11.10;99.90
56861;DHT22;42744;51.094;3.490;2022-08-07T05:41:38;11.10;99.90
56861;DHT22;42744;51.094;3.490;2022-08-07T05:44:04;11.20;99.90
56861;DHT22;42744;51.094;3.490;2022-08-07T05:46:31;11.30;99.90
56861;DHT22;42744;51.094;3.490;2022-08-07T05:48:59;11.30;99.90
56861;DHT22;42744;51.094;3.490;2022-08-07T05:51:25;11.40;99.90
56861;DHT22;42744;51.094;3.490;2022-08-07T05:53:51;11.50;99.90
56861;DHT22;42744;51.094;3.490;2022-08-07T05:56:18;11.60;99.90
56861;DHT22;42744;51.094;3.490;2022-08-07T05:58:46;11.60;99.90
56861;DHT22;42744;51.094;3.490;2022-08-07T06:01:14;11.70;99.90
56861;DHT22;42744;51.094;3.490;2022-08-07T06:03:47;11.80;99.90
56861;DHT22;42744;51.094;3.490;2022-08-07T06:06:13;11.90;99.90
56861;DHT22;42744;51.094;3.490;2022-08-07T06:08:40;12.00;99.90
56861;DHT22;42744;51.094;3.490;2022-08-07T06:11:07;12.10;99.90
56861;DHT22;42744;51.094;3.490;2022-08-07T06:13:35;12.20;99.90
56861;DHT22;42744;51.094;3.490;2022-08-07T06:16:02;12.30;99.90
56861;DHT22;42744;51.094;3.490;2022-08-07T06:18:31;12.40;99.90
56861;DHT22;42744;51.094;3.490;2022-08-07T06:21:03;12.50;99.90
56861;DHT22;42744;51.094;3.490;2022-08-07T06:23:31;12.60;99.90
56861;DHT22;42744;51.094;3.490;2022-08-07T06:25:58;12.70;99.90
56861;DHT22;42744;51.094;3.490;2022-08-07T06:28:25;12.90;99.90
56861;DHT22;42744;51.094;3.490;2022-08-07T06:30:51;13.00;99.90
56861;DHT22;42744;51.094;3.490;2022-08-07T06:33:18;13.10;99.90
56861;DHT22;42744;51.094;3.490;2022-08-07T06:35:45;13.20;99.90
56861;DHT22;42744;51.094;3.490;2022-08-07T06:38:12;13.40;99.90
56861;DHT22;42744;51.094;3.490;2022-08-07T06:40:47;13.50;99.90
56861;DHT22;42744;51.094;3.490;2022-08-07T06:43:15;13.70;99.90
56861;DHT22;42744;51.094;3.490;2022-08-07T06:45:44;13.80;99.90
56861;DHT22;42744;51.094;3.490;2022-08-07T06:48:10;14.00;99.90
56861;DHT22;42744;51.094;3.490;2022-08-07T06:50:39;14.20;99.90
56861;DHT22;42744;51.094;3.490;2022-08-07T06:53:07;14.30;99.90
56861;DHT22;42744;51.094;3.490;2022-08-07T06:55:34;14.40;99.90
56861;DHT22;42744;51.094;3.490;2022-08-07T06:58:05;14.50;99.90
56861;DHT22;42744;51.094;3.490;2022-08-07T07:00:37;14.70;99.90
56861;DHT22;42744;51.094;3.490;2022-08-07T07:03:07;14.80;99.90
56861;DHT22;42744;51.094;3.490;2022-08-07T07:05:34;15.00;99.90
56861;DHT22;42744;51.094;3.490;2022-08-07T07:08:00;15.20;99.90
56861;DHT22;42744;51.094;3.490;2022-08-07T07:10:35;15.30;99.90
56861;DHT22;42744;51.094;3.490;2022-08-07T07:13:22;15.40;99.90
56861;DHT22;42744;51.094;3.490;2022-08-07T07:15:59;15.60;99.90
56861;DHT22;42744;51.094;3.490;2022-08-07T07:18:41;15.70;99.90
56861;DHT22;42744;51.094;3.490;2022-08-07T07:21:17;15.80;99.90
56861;DHT22;42744;51.094;3.490;2022-08-07T07:23:43;16.00;99.90
56861;DHT22;42744;51.094;3.490;2022-08-07T07:26:14;16.20;99.90
56861;DHT22;42744;51.094;3.490;2022-08-07T07:28:53;16.40;99.90
56861;DHT22;42744;51.094;3.490;2022-08-07T07:31:32;16.50;99.90
56861;DHT22;42744;51.094;3.490;2022-08-07T07:34:02;16.70;99.90
56861;DHT22;42744;51.094;3.490;2022-08-07T07:36:31;16.80;99.90
56861;DHT22;42744;51.094;3.490;2022-08-07T07:38:59;16.90;99.90
56861;DHT22;42744;51.094;3.490;2022-08-07T07:41:26;17.00;99.90
56861;DHT22;42744;51.094;3.490;2022-08-07T07:43:53;17.10;99.90
56861;DHT22;42744;51.094;3.490;2022-08-07T07:46:20;17.20;99.90
56861;DHT22;42744;51.094;3.490;2022-08-07T07:48:50;17.30;99.90
56861;DHT22;42744;51.094;3.490;2022-08-07T07:51:19;17.50;99.90
56861;DHT22;42744;51.094;3.490;2022-08-07T07:53:46;17.60;99.90
56861;DHT22;42744;51.094;3.490;2022-08-07T07:56:14;17.70;99.90
56861;DHT22;42744;51.094;3.490;2022-08-07T07:58:41;17.70;99.90
56861;DHT22;42744;51.094;3.490;2022-08-07T08:01:09;17.80;99.90
56861;DHT22;42744;51.094;3.490;2022-08-07T08:03:37;17.80;99.90
56861;DHT22;42744;51.094;3.490;2022-08-07T08:06:06;17.90;99.90
56861;DHT22;42744;51.094;3.490;2022-08-07T08:08:34;18.00;99.90
56861;DHT22;42744;51.094;3.490;2022-08-07T08:11:04;18.10;99.90
56861;DHT22;42744;51.094;3.490;2022-08-07T08:13:31;18.10;99.90
56861;DHT22;42744;51.094;3.490;2022-08-07T08:16:00;18.10;99.90
56861;DHT22;42744;51.094;3.490;2022-08-07T08:18:28;18.20;99.90
56861;DHT22;42744;51.094;3.490;2022-08-07T08:20:59;18.30;99.90
56861;DHT22;42744;51.094;3.490;2022-08-07T08:23:28;18.50;99.90
56861;DHT22;42744;51.094;3.490;2022-08-07T08:26:15;18.60;99.90
56861;DHT22;42744;51.094;3.490;2022-08-07T08:29:02;18.60;99.90
56861;DHT22;42744;51.094;3.490;2022-08-07T08:31:32;18.60;99.90
56861;DHT22;42744;51.094;3.490;2022-08-07T08:34:03;18.70;99.90
56861;DHT22;42744;51.094;3.490;2022-08-07T08:36:32;18.70;99.90
56861;DHT22;42744;51.094;3.490;2022-08-07T08:38:59;18.80;99.90
56861;DHT22;42744;51.094;3.490;2022-08-07T08:41:46;18.90;99.90
56861;DHT22;42744;51.094;3.490;2022-08-07T08:49:31;19.10;97.40
56861;DHT22;42744;51.094;3.490;2022-08-07T08:52:37;19.30;97.40
56861;DHT22;42744;51.094;3.490;2022-08-07T08:57:43;19.30;96.30
56861;DHT22;42744;51.094;3.490;2022-08-07T09:00:11;19.40;96.70
56861;DHT22;42744;51.094;3.490;2022-08-07T09:02:57;19.40;97.20
56861;DHT22;42744;51.094;3.490;2022-08-07T09:05:50;19.50;97.90
56861;DHT22;42744;51.094;3.490;2022-08-07T09:25:22;20.10;94.60
56861;DHT22;42744;51.094;3.490;2022-08-07T09:27:58;20.20;95.10
56861;DHT22;42744;51.094;3.490;2022-08-07T09:30:32;20.40;93.80
56861;DHT22;42744;51.094;3.490;2022-08-07T09:33:14;20.40;93.00
56861;DHT22;42744;51.094;3.490;2022-08-07T09:44:07;20.50;91.70
56861;DHT22;42744;51.094;3.490;2022-08-07T09:55:16;20.70;91.90
56861;DHT22;42744;51.094;3.490;2022-08-07T10:00:47;20.80;92.40
56861;DHT22;42744;51.094;3.490;2022-08-07T10:15:20;21.10;93.50
56861;DHT22;42744;51.094;3.490;2022-08-07T10:17:58;21.40;93.60
56861;DHT22;42744;51.094;3.490;2022-08-07T10:32:27;21.90;93.10
56861;DHT22;42744;51.094;3.490;2022-08-07T10:35:12;22.20;91.20
56861;DHT22;42744;51.094;3.490;2022-08-07T10:40:35;22.50;90.90
56861;DHT22;42744;51.094;3.490;2022-08-07T10:43:33;22.40;89.10
56861;DHT22;42744;51.094;3.490;2022-08-07T10:46:00;22.30;87.30
56861;DHT22;42744;51.094;3.490;2022-08-07T10:51:10;22.30;87.10
56861;DHT22;42744;51.094;3.490;2022-08-07T10:56:35;22.70;90.00
56861;DHT22;42744;51.094;3.490;2022-08-07T11:01:57;23.30;88.20
56861;DHT22;42744;51.094;3.490;2022-08-07T11:04:43;23.30;85.80
56861;DHT22;42744;51.094;3.490;2022-08-07T11:07:17;23.30;83.40
56861;DHT22;42744;51.094;3.490;2022-08-07T11:09:53;23.20;85.90
56861;DHT22;42744;51.094;3.490;2022-08-07T11:12:47;23.30;84.70
56861;DHT22;42744;51.094;3.490;2022-08-07T11:15:21;23.40;86.40
56861;DHT22;42744;51.094;3.490;2022-08-07T11:21:01;23.80;84.10
56861;DHT22;42744;51.094;3.490;2022-08-07T11:24:21;23.90;84.00
56861;DHT22;42744;51.094;3.490;2022-08-07T11:29:13;24.00;81.00
56861;DHT22;42744;51.094;3.490;2022-08-07T11:31:47;23.80;80.90
56861;DHT22;42744;51.094;3.490;2022-08-07T11:35:06;23.70;81.30
56861;DHT22;42744;51.094;3.490;2022-08-07T11:43:17;24.80;81.40
56861;DHT22;42744;51.094;3.490;2022-08-07T11:46:04;24.70;78.40
56861;DHT22;42744;51.094;3.490;2022-08-07T11:51:51;24.20;78.20
56861;DHT22;42744;51.094;3.490;2022-08-07T12:14:20;25.10;78.10
56861;DHT22;42744;51.094;3.490;2022-08-07T12:17:04;25.10;75.70
56861;DHT22;42744;51.094;3.490;2022-08-07T12:20:02;25.10;76.70
56861;DHT22;42744;51.094;3.490;2022-08-07T12:23:00;25.20;76.40
56861;DHT22;42744;51.094;3.490;2022-08-07T12:28:19;26.00;79.00
56861;DHT22;42744;51.094;3.490;2022-08-07T12:30:52;26.30;79.30
56861;DHT22;42744;51.094;3.490;2022-08-07T12:33:22;26.60;75.60
56861;DHT22;42744;51.094;3.490;2022-08-07T12:35:51;26.50;76.00
56861;DHT22;42744;51.094;3.490;2022-08-07T12:38:19;26.70;77.10
56861;DHT22;42744;51.094;3.490;2022-08-07T12:40:50;26.90;76.00
56861;DHT22;42744;51.094;3.490;2022-08-07T12:43:19;26.90;76.00
56861;DHT22;42744;51.094;3.490;2022-08-07T12:46:00;27.00;74.20
56861;DHT22;42744;51.094;3.490;2022-08-07T12:48:40;27.20;74.90
56861;DHT22;42744;51.094;3.490;2022-08-07T12:51:17;27.40;73.90
56861;DHT22;42744;51.094;3.490;2022-08-07T12:54:00;27.40;72.90
56861;DHT22;42744;51.094;3.490;2022-08-07T12:56:36;27.40;73.20
56861;DHT22;42744;51.094;3.490;2022-08-07T12:59:05;27.20;72.40
56861;DHT22;42744;51.094;3.490;2022-08-07T13:01:49;27.40;74.20
56861;DHT22;42744;51.094;3.490;2022-08-07T13:15:47;28.10;71.40
56861;DHT22;42744;51.094;3.490;2022-08-07T13:21:13;27.70;73.40
56861;DHT22;42744;51.094;3.490;2022-08-07T13:24:07;27.90;73.00
56861;DHT22;42744;51.094;3.490;2022-08-07T13:26:43;28.30;71.20
56861;DHT22;42744;51.094;3.490;2022-08-07T13:29:20;28.60;71.10
56861;DHT22;42744;51.094;3.490;2022-08-07T13:34:41;28.30;69.40
56861;DHT22;42744;51.094;3.490;2022-08-07T13:37:09;28.10;68.80
56861;DHT22;42744;51.094;3.490;2022-08-07T13:39:58;28.20;70.40
56861;DHT22;42744;51.094;3.490;2022-08-07T13:42:27;28.40;69.30
56861;DHT22;42744;51.094;3.490;2022-08-07T13:44:55;28.10;70.00
56861;DHT22;42744;51.094;3.490;2022-08-07T13:47:26;28.00;70.20
56861;DHT22;42744;51.094;3.490;2022-08-07T13:49:58;27.80;68.80
56861;DHT22;42744;51.094;3.490;2022-08-07T13:52:26;27.50;68.80
56861;DHT22;42744;51.094;3.490;2022-08-07T13:54:58;27.40;68.20
56861;DHT22;42744;51.094;3.490;2022-08-07T13:57:30;27.40;70.30
56861;DHT22;42744;51.094;3.490;2022-08-07T13:59:57;28.00;70.20
56861;DHT22;42744;51.094;3.490;2022-08-07T14:02:27;28.00;68.50
56861;DHT22;42744;51.094;3.490;2022-08-07T14:04:56;28.10;69.20
56861;DHT22;42744;51.094;3.490;2022-08-07T14:07:30;28.40;68.80
56861;DHT22;42744;51.094;3.490;2022-08-07T14:09:59;28.60;68.90
56861;DHT22;42744;51.094;3.490;2022-08-07T14:15:05;29.00;68.80
56861;DHT22;42744;51.094;3.490;2022-08-07T14:17:36;28.80;67.10
56861;DHT22;42744;51.094;3.490;2022-08-07T14:20:18;28.90;67.00
56861;DHT22;42744;51.094;3.490;2022-08-07T14:22:50;28.80;65.70
56861;DHT22;42744;51.094;3.490;2022-08-07T14:25:22;28.70;67.40
56861;DHT22;42744;51.094;3.490;2022-08-07T14:27:50;28.70;67.60
56861;DHT22;42744;51.094;3.490;2022-08-07T14:30:18;28.80;67.60
56861;DHT22;42744;51.094;3.490;2022-08-07T14:32:47;28.60;67.50
56861;DHT22;42744;51.094;3.490;2022-08-07T14:35:23;28.40;69.20
56861;DHT22;42744;51.094;3.490;2022-08-07T14:37:51;28.70;69.40
56861;DHT22;42744;51.094;3.490;2022-08-07T14:40:22;28.60;68.40
56861;DHT22;42744;51.094;3.490;2022-08-07T14:43:07;28.40;69.40
56861;DHT22;42744;51.094;3.490;2022-08-07T14:45:41;28.50;68.60
56861;DHT22;42744;51.094;3.490;2022-08-07T14:48:08;28.60;68.70
56861;DHT22;42744;51.094;3.490;2022-08-07T14:50:40;28.60;68.50
56861;DHT22;42744;51.094;3.490;2022-08-07T14:53:07;28.70;68.50
56861;DHT22;42744;51.094;3.490;2022-08-07T14:55:34;28.80;69.10
56861;DHT22;42744;51.094;3.490;2022-08-07T14:58:02;28.70;67.90
56861;DHT22;42744;51.094;3.490;2022-08-07T15:00:30;28.40;67.30
56861;DHT22;42744;51.094;3.490;2022-08-07T15:03:04;27.80;68.30
56861;DHT22;42744;51.094;3.490;2022-08-07T15:05:31;27.80;68.10
56861;DHT22;42744;51.094;3.490;2022-08-07T15:07:58;27.80;69.00
56861;DHT22;42744;51.094;3.490;2022-08-07T15:10:28;27.60;69.20
56861;DHT22;42744;51.094;3.490;2022-08-07T15:12:58;27.60;68.80
56861;DHT22;42744;51.094;3.490;2022-08-07T15:15:33;27.70;69.00
56861;DHT22;42744;51.094;3.490;2022-08-07T15:18:06;27.70;69.70
56861;DHT22;42744;51.094;3.490;2022-08-07T15:20:35;27.90;69.10
56861;DHT22;42744;51.094;3.490;2022-08-07T15:23:11;28.10;69.10
56861;DHT22;42744;51.094;3.490;2022-08-07T15:25:39;28.10;68.40
56861;DHT22;42744;51.094;3.490;2022-08-07T15:28:11;28.10;68.50
56861;DHT22;42744;51.094;3.490;2022-08-07T15:30:38;27.90;67.80
56861;DHT22;42744;51.094;3.490;2022-08-07T15:33:04;27.30;67.80
56861;DHT22;42744;51.094;3.490;2022-08-07T15:35:32;27.10;70.30
56861;DHT22;42744;51.094;3.490;2022-08-07T15:38:01;27.20;68.70
56861;DHT22;42744;51.094;3.490;2022-08-07T15:40:30;27.30;68.90
56861;DHT22;42744;51.094;3.490;2022-08-07T15:45:40;27.20;68.80
56861;DHT22;42744;51.094;3.490;2022-08-07T15:48:12;26.90;69.60
56861;DHT22;42744;51.094;3.490;2022-08-07T15:50:42;26.90;70.20
56861;DHT22;42744;51.094;3.490;2022-08-07T15:53:13;27.00;70.00
56861;DHT22;42744;51.094;3.490;2022-08-07T15:55:50;27.20;69.40
56861;DHT22;42744;51.094;3.490;2022-08-07T15:58:17;27.20;70.40
56861;DHT22;42744;51.094;3.490;2022-08-07T16:00:46;27.20;69.80
56861;DHT22;42744;51.094;3.490;2022-08-07T16:03:17;27.10;69.50
56861;DHT22;42744;51.094;3.490;2022-08-07T16:05:47;26.80;70.10
56861;DHT22;42744;51.094;3.490;2022-08-07T16:08:20;26.70;70.40
56861;DHT22;42744;51.094;3.490;2022-08-07T16:10:51;26.50;70.20
56861;DHT22;42744;51.094;3.490;2022-08-07T16:16:01;26.20;71.70
56861;DHT22;42744;51.094;3.490;2022-08-07T16:21:14;26.10;71.20
56861;DHT22;42744;51.094;3.490;2022-08-07T17:02:11;24.50;74.20
56861;DHT22;42744;51.094;3.490;2022-08-07T17:04:52;24.30;74.50
56861;DHT22;42744;51.094;3.490;2022-08-07T17:07:27;24.20;75.20
56861;DHT22;42744;51.094;3.490;2022-08-07T17:21:43;23.70;76.60
56861;DHT22;42744;51.094;3.490;2022-08-07T17:27:15;23.40;76.60
56861;DHT22;42744;51.094;3.490;2022-08-07T17:32:32;23.10;77.70
56861;DHT22;42744;51.094;3.490;2022-08-07T17:35:08;22.90;78.50
56861;DHT22;42744;51.094;3.490;2022-08-07T17:37:48;22.80;79.00
56861;DHT22;42744;51.094;3.490;2022-08-07T17:40:38;22.80;79.00
56861;DHT22;42744;51.094;3.490;2022-08-07T17:43:08;22.70;79.90
56861;DHT22;42744;51.094;3.490;2022-08-07T17:45:52;22.50;80.20
56861;DHT22;42744;51.094;3.490;2022-08-07T17:48:31;22.40;80.50
56861;DHT22;42744;51.094;3.490;2022-08-07T17:51:14;22.30;80.90
56861;DHT22;42744;51.094;3.490;2022-08-07T17:56:25;22.10;81.30
56861;DHT22;42744;51.094;3.490;2022-08-07T18:01:32;21.90;81.50
56861;DHT22;42744;51.094;3.490;2022-08-07T18:06:57;21.70;82.30
56861;DHT22;42744;51.094;3.490;2022-08-07T18:09:25;21.60;82.80
56861;DHT22;42744;51.094;3.490;2022-08-07T18:13:12;21.50;82.70
56861;DHT22;42744;51.094;3.490;2022-08-07T18:15:26;21.50;83.20
56861;DHT22;42744;51.094;3.490;2022-08-07T18:18:15;21.40;84.00
56861;DHT22;42744;51.094;3.490;2022-08-07T18:20:57;21.30;82.90
56861;DHT22;42744;51.094;3.490;2022-08-07T18:23:31;21.20;83.60
56861;DHT22;42744;51.094;3.490;2022-08-07T18:26:07;21.20;84.20
56861;DHT22;42744;51.094;3.490;2022-08-07T18:31:35;21.00;84.00
56861;DHT22;42744;51.094;3.490;2022-08-07T18:37:10;21.00;85.30
56861;DHT22;42744;51.094;3.490;2022-08-07T18:45:47;20.70;85.80
56861;DHT22;42744;51.094;3.490;2022-08-07T18:48:26;20.60;86.10
56861;DHT22;42744;51.094;3.490;2022-08-07T19:01:54;20.20;89.00
56861;DHT22;42744;51.094;3.490;2022-08-07T19:04:28;20.10;88.40
56861;DHT22;42744;51.094;3.490;2022-08-07T19:06:59;20.00;89.40
56861;DHT22;42744;51.094;3.490;2022-08-07T19:09:50;19.90;90.00
56861;DHT22;42744;51.094;3.490;2022-08-07T19:12:19;19.80;90.00
56861;DHT22;42744;51.094;3.490;2022-08-07T19:20:30;19.50;90.80
56861;DHT22;42744;51.094;3.490;2022-08-07T19:25:35;19.30;91.30
56861;DHT22;42744;51.094;3.490;2022-08-07T19:28:12;19.10;91.70
56861;DHT22;42744;51.094;3.490;2022-08-07T19:30:40;18.90;92.10
56861;DHT22;42744;51.094;3.490;2022-08-07T19:33:09;18.70;92.50
56861;DHT22;42744;51.094;3.490;2022-08-07T19:35:36;18.70;92.90
56861;DHT22;42744;51.094;3.490;2022-08-07T19:38:10;18.60;93.30
56861;DHT22;42744;51.094;3.490;2022-08-07T19:40:39;18.50;93.70
56861;DHT22;42744;51.094;3.490;2022-08-07T19:43:22;18.40;94.10
56861;DHT22;42744;51.094;3.490;2022-08-07T19:45:50;18.30;94.60
56861;DHT22;42744;51.094;3.490;2022-08-07T19:48:21;18.20;95.10
56861;DHT22;42744;51.094;3.490;2022-08-07T19:50:50;18.20;95.40
56861;DHT22;42744;51.094;3.490;2022-08-07T19:53:17;18.10;95.70
56861;DHT22;42744;51.094;3.490;2022-08-07T19:55:44;18.00;96.10
56861;DHT22;42744;51.094;3.490;2022-08-07T19:58:13;17.90;96.60
56861;DHT22;42744;51.094;3.490;2022-08-07T20:00:44;17.90;97.10
56861;DHT22;42744;51.094;3.490;2022-08-07T20:03:17;17.80;97.60
56861;DHT22;42744;51.094;3.490;2022-08-07T20:05:46;17.80;98.10